createdAt,value
2019-05-20T00:00:02.067Z,17.80
2019-05-20T00:02:05.307Z,17.80
2019-05-20T00:04:08.561Z,17.80
2019-05-20T00:06:11.896Z,17.80
2019-05-20T00:08:15.194Z,17.80
2019-05-20T00:10:18.450Z,17.80
2019-05-20T00:12:21.759Z,17.80
2019-05-20T00:14:24.996Z,17.80
2019-05-20T00:16:28.287Z,17.80
2019-05-20T00:18:31.541Z,17.80
2019-05-20T00:20:34.821Z,17.80
2019-05-20T00:22:38.082Z,17.70
2019-05-20T00:24:41.336Z,17.80
2019-05-20T00:26:44.730Z,17.70
2019-05-20T00:28:48.050Z,17.70
2019-05-20T00:30:51.330Z,17.70
2019-05-20T00:32:54.582Z,17.70
2019-05-20T00:34:57.849Z,17.70
2019-05-20T00:37:01.188Z,17.70
2019-05-20T00:39:13.170Z,17.60
2019-05-20T00:41:16.426Z,17.60
2019-05-20T00:43:19.677Z,17.60
2019-05-20T00:45:22.941Z,17.60
2019-05-20T00:47:26.197Z,17.50
2019-05-20T00:49:29.448Z,17.50
2019-05-20T00:51:32.707Z,17.50
2019-05-20T00:53:36.043Z,17.50
2019-05-20T00:55:39.309Z,17.40
2019-05-20T00:57:42.637Z,17.40
2019-05-20T00:59:45.913Z,17.40
2019-05-20T01:01:49.279Z,17.40
2019-05-20T01:03:52.572Z,17.30
2019-05-20T01:05:55.850Z,17.30
2019-05-20T01:07:59.088Z,17.30
2019-05-20T01:10:02.460Z,17.20
2019-05-20T01:12:05.782Z,17.20
2019-05-20T01:14:09.029Z,17.10
2019-05-20T01:16:12.279Z,17.10
2019-05-20T01:18:15.542Z,17.10
2019-05-20T01:20:18.810Z,17.10
2019-05-20T01:22:22.072Z,17.00
2019-05-20T01:24:25.331Z,17.00
2019-05-20T01:26:28.641Z,17.00
2019-05-20T01:28:31.876Z,17.00
2019-05-20T01:30:35.120Z,17.00
2019-05-20T01:32:38.407Z,17.00
2019-05-20T01:34:41.646Z,16.90
2019-05-20T01:36:44.904Z,16.90
2019-05-20T01:38:48.174Z,16.90
2019-05-20T01:40:51.418Z,16.80
2019-05-20T01:42:54.695Z,16.80
2019-05-20T01:44:57.917Z,16.80
2019-05-20T01:47:01.177Z,16.80
2019-05-20T01:49:04.444Z,16.70
2019-05-20T01:51:07.976Z,16.70
2019-05-20T01:53:11.290Z,16.70
2019-05-20T01:55:14.529Z,16.70
2019-05-20T01:57:17.796Z,16.70
2019-05-20T01:59:21.057Z,16.60
2019-05-20T02:01:24.311Z,16.60
2019-05-20T02:03:31.679Z,16.60
2019-05-20T02:05:32.634Z,16.60
2019-05-20T02:07:35.952Z,16.60
2019-05-20T02:09:39.204Z,16.50
2019-05-20T02:11:42.519Z,16.60
2019-05-20T02:13:52.936Z,16.50
2019-05-20T02:16:00.394Z,16.50
2019-05-20T02:18:03.658Z,16.50
2019-05-20T02:20:07.108Z,16.50
2019-05-20T02:22:10.420Z,16.50
2019-05-20T02:24:13.685Z,16.40
2019-05-20T02:26:16.938Z,16.40
2019-05-20T02:28:20.202Z,16.40
2019-05-20T02:30:23.456Z,16.40
2019-05-20T02:32:26.698Z,16.40
2019-05-20T02:34:29.962Z,16.40
2019-05-20T02:36:33.266Z,16.40
2019-05-20T02:38:36.524Z,16.30
2019-05-20T02:40:39.798Z,16.40
2019-05-20T02:42:43.034Z,16.40
2019-05-20T02:44:46.308Z,16.30
2019-05-20T02:46:49.577Z,16.30
2019-05-20T02:48:52.865Z,16.30
2019-05-20T02:50:56.111Z,16.30
2019-05-20T02:52:59.355Z,16.20
2019-05-20T02:55:02.637Z,16.20
2019-05-20T02:57:05.884Z,16.20
2019-05-20T02:59:09.127Z,16.20
2019-05-20T03:01:12.383Z,16.20
2019-05-20T03:03:15.626Z,16.20
2019-05-20T03:05:18.895Z,16.20
2019-05-20T03:07:22.145Z,16.20
2019-05-20T03:09:25.453Z,16.20
2019-05-20T03:11:28.730Z,16.20
2019-05-20T03:13:31.980Z,16.20
2019-05-20T03:15:35.237Z,16.20
2019-05-20T03:17:38.488Z,16.20
2019-05-20T03:19:41.744Z,16.20
2019-05-20T03:21:45.008Z,16.10
2019-05-20T03:23:48.245Z,16.10
2019-05-20T03:25:51.510Z,16.10
2019-05-20T03:27:54.747Z,16.10
2019-05-20T03:29:58.013Z,16.10
2019-05-20T03:32:01.330Z,16.10
2019-05-20T03:34:04.626Z,16.10
2019-05-20T03:36:08.152Z,16.10
2019-05-20T03:38:11.405Z,16.10
2019-05-20T03:40:14.643Z,16.00
2019-05-20T03:42:17.918Z,16.00
2019-05-20T03:44:21.185Z,16.00
2019-05-20T03:46:24.471Z,16.00
2019-05-20T03:48:27.770Z,16.10
2019-05-20T03:50:31.010Z,16.10
2019-05-20T03:52:34.276Z,16.10
2019-05-20T03:54:37.518Z,16.10
2019-05-20T03:56:40.784Z,16.10
2019-05-20T03:58:44.114Z,16.10
2019-05-20T04:00:47.732Z,16.10
2019-05-20T04:02:51.037Z,16.10
2019-05-20T04:05:02.418Z,16.10
2019-05-20T04:06:59.271Z,16.10
2019-05-20T04:09:02.523Z,16.10
2019-05-20T04:11:05.811Z,16.10
2019-05-20T04:13:09.080Z,16.10
2019-05-20T04:15:12.325Z,16.10
2019-05-20T04:17:15.663Z,16.20
2019-05-20T04:19:18.917Z,16.10
2019-05-20T04:21:22.160Z,16.20
2019-05-20T04:23:25.435Z,16.20
2019-05-20T04:25:28.687Z,16.20
2019-05-20T04:27:31.940Z,16.20
2019-05-20T04:29:35.189Z,16.20
2019-05-20T04:31:38.517Z,16.20
2019-05-20T04:33:41.773Z,16.20
2019-05-20T04:35:49.279Z,16.20
2019-05-20T04:37:50.013Z,16.20
2019-05-20T04:39:53.239Z,16.30
2019-05-20T04:41:56.497Z,16.30
2019-05-20T04:43:59.779Z,16.30
2019-05-20T04:46:03.024Z,16.30
2019-05-20T04:48:06.284Z,16.30
2019-05-20T04:50:09.530Z,16.30
2019-05-20T04:52:12.768Z,16.30
2019-05-20T04:54:16.049Z,16.40
2019-05-20T04:56:19.361Z,16.40
2019-05-20T04:58:22.638Z,16.40
2019-05-20T05:00:48.768Z,16.40
2019-05-20T05:02:51.998Z,16.40
2019-05-20T05:04:55.281Z,16.50
2019-05-20T05:06:58.541Z,16.50
2019-05-20T05:09:01.799Z,16.50
2019-05-20T05:11:05.030Z,16.50
2019-05-20T05:13:08.390Z,16.50
2019-05-20T05:15:11.698Z,16.50
2019-05-20T05:17:14.938Z,16.60
2019-05-20T05:19:18.198Z,16.60
2019-05-20T05:21:21.488Z,16.60
2019-05-20T05:23:24.749Z,16.60
2019-05-20T05:25:28.014Z,16.70
2019-05-20T05:27:31.266Z,16.70
2019-05-20T05:29:34.521Z,16.80
2019-05-20T05:31:37.754Z,16.80
2019-05-20T05:33:41.014Z,16.80
2019-05-20T05:35:52.974Z,16.90
2019-05-20T05:37:49.375Z,16.90
2019-05-20T05:39:52.613Z,16.90
2019-05-20T05:41:55.908Z,16.90
2019-05-20T05:43:59.163Z,16.90
2019-05-20T05:46:02.410Z,16.90
2019-05-20T05:48:05.662Z,17.00
2019-05-20T05:50:08.914Z,17.00
2019-05-20T05:52:12.174Z,17.00
2019-05-20T05:54:15.409Z,17.00
2019-05-20T05:56:18.688Z,17.10
2019-05-20T05:58:21.925Z,17.10
2019-05-20T06:00:25.258Z,17.10
2019-05-20T06:02:28.497Z,17.10
2019-05-20T06:04:31.759Z,17.10
2019-05-20T06:06:35.014Z,17.20
2019-05-20T06:08:38.301Z,17.20
2019-05-20T06:10:41.610Z,17.20
2019-05-20T06:12:44.854Z,17.20
2019-05-20T06:14:48.189Z,17.30
2019-05-20T06:16:51.451Z,17.20
2019-05-20T06:18:54.705Z,17.30
2019-05-20T06:20:57.954Z,17.30
2019-05-20T06:23:01.221Z,17.30
2019-05-20T06:25:05.575Z,17.30
2019-05-20T06:27:08.848Z,17.30
2019-05-20T06:29:12.074Z,17.40
2019-05-20T06:31:15.345Z,17.30
2019-05-20T06:33:18.609Z,17.40
2019-05-20T06:35:21.876Z,17.40
2019-05-20T06:37:32.641Z,17.40
2019-05-20T06:39:35.894Z,17.40
2019-05-20T06:41:40.407Z,17.40
2019-05-20T06:43:43.658Z,17.40
2019-05-20T06:45:46.899Z,17.40
2019-05-20T06:47:50.183Z,17.50
2019-05-20T06:49:53.431Z,17.50
2019-05-20T06:51:56.702Z,17.50
2019-05-20T06:54:00.001Z,17.50
2019-05-20T06:56:03.295Z,17.50
2019-05-20T06:58:06.533Z,17.60
2019-05-20T07:00:11.430Z,17.60
2019-05-20T07:02:14.706Z,17.60
2019-05-20T07:04:17.949Z,17.60
2019-05-20T07:06:21.199Z,17.60
2019-05-20T07:08:24.466Z,17.60
2019-05-20T07:10:27.738Z,17.60
2019-05-20T07:12:40.507Z,17.70
2019-05-20T07:14:36.147Z,17.70
2019-05-20T07:16:39.472Z,17.70
2019-05-20T07:18:42.734Z,17.70
2019-05-20T07:20:45.986Z,17.70
2019-05-20T07:22:55.661Z,17.80
2019-05-20T07:24:54.266Z,17.80
2019-05-20T07:26:57.509Z,17.80
2019-05-20T07:29:00.783Z,17.90
2019-05-20T07:31:04.042Z,17.90
2019-05-20T07:33:07.352Z,17.90
2019-05-20T07:35:10.584Z,17.90
2019-05-20T07:37:13.824Z,17.90
2019-05-20T07:39:17.097Z,18.00
2019-05-20T07:41:20.347Z,18.00
2019-05-20T07:43:23.623Z,18.00
2019-05-20T07:45:27.149Z,18.10
2019-05-20T07:47:30.474Z,18.10
2019-05-20T07:49:33.733Z,18.10
2019-05-20T07:51:37.051Z,18.20
2019-05-20T07:53:40.364Z,18.30
2019-05-20T07:55:52.394Z,18.30
2019-05-20T07:57:55.640Z,18.30
2019-05-20T07:59:58.954Z,18.30
2019-05-20T08:02:02.261Z,18.30
2019-05-20T08:04:05.520Z,18.40
2019-05-20T08:06:08.945Z,18.40
2019-05-20T08:08:12.191Z,18.40
2019-05-20T08:10:15.481Z,18.40
2019-05-20T08:12:18.807Z,18.50
2019-05-20T08:14:24.112Z,18.40
2019-05-20T08:16:27.181Z,18.50
2019-05-20T08:18:30.502Z,18.50
2019-05-20T08:20:33.791Z,18.50
2019-05-20T08:22:38.755Z,18.50
2019-05-20T08:24:42.033Z,18.60
2019-05-20T08:26:45.359Z,18.60
2019-05-20T08:28:48.726Z,18.60
2019-05-20T08:30:52.007Z,18.60
2019-05-20T08:32:55.299Z,18.70
2019-05-20T08:34:58.957Z,18.70
2019-05-20T08:37:02.298Z,18.80
2019-05-20T08:39:07.201Z,18.80
2019-05-20T08:41:10.455Z,18.90
2019-05-20T08:43:13.713Z,18.90
2019-05-20T08:45:17.024Z,19.00
2019-05-20T08:47:20.346Z,19.10
2019-05-20T08:49:23.618Z,19.10
2019-05-20T08:51:26.864Z,19.20
2019-05-20T08:53:30.146Z,19.20
2019-05-20T08:55:33.456Z,19.30
2019-05-20T08:57:36.725Z,19.30
2019-05-20T08:59:40.234Z,19.30
2019-05-20T09:01:43.493Z,19.40
2019-05-20T09:03:46.738Z,19.40
2019-05-20T09:05:50.034Z,19.40
2019-05-20T09:08:02.893Z,19.50
2019-05-20T09:09:58.281Z,19.50
2019-05-20T09:12:01.588Z,19.50
2019-05-20T09:14:04.883Z,19.50
2019-05-20T09:16:08.177Z,19.50
2019-05-20T09:18:11.441Z,19.50
2019-05-20T09:20:14.698Z,19.60
2019-05-20T09:22:17.974Z,19.60
2019-05-20T09:24:21.258Z,19.60
2019-05-20T09:26:24.698Z,19.60
2019-05-20T09:28:27.963Z,19.70
2019-05-20T09:30:31.282Z,19.70
2019-05-20T09:32:34.575Z,19.70
2019-05-20T09:34:37.836Z,19.70
2019-05-20T09:36:41.371Z,19.70
2019-05-20T09:38:44.630Z,19.80
2019-05-20T09:40:48.558Z,19.70
2019-05-20T09:42:51.842Z,19.80
2019-05-20T09:44:55.217Z,19.80
2019-05-20T09:46:58.546Z,19.80
2019-05-20T09:49:01.785Z,19.80
2019-05-20T09:51:05.062Z,19.80
2019-05-20T09:53:08.390Z,19.90
2019-05-20T09:55:11.634Z,19.90
2019-05-20T09:57:14.897Z,19.90
2019-05-20T09:59:18.150Z,19.90
2019-05-20T10:01:21.396Z,19.90
2019-05-20T10:03:24.658Z,19.90
2019-05-20T10:05:27.925Z,20.00
2019-05-20T10:07:31.348Z,20.00
2019-05-20T10:09:34.586Z,20.00
2019-05-20T10:11:37.873Z,20.00
2019-05-20T10:13:41.232Z,20.00
2019-05-20T10:15:44.577Z,20.00
2019-05-20T10:17:47.863Z,20.00
2019-05-20T10:19:51.138Z,20.00
2019-05-20T10:21:54.477Z,20.00
2019-05-20T10:23:57.744Z,20.00
2019-05-20T10:26:00.999Z,20.00
2019-05-20T10:28:04.305Z,20.00
2019-05-20T10:30:07.997Z,19.90
2019-05-20T10:32:11.246Z,19.90
2019-05-20T10:34:14.542Z,19.90
2019-05-20T10:36:17.803Z,19.90
2019-05-20T10:38:21.110Z,19.90
2019-05-20T10:40:24.426Z,19.90
2019-05-20T10:42:27.709Z,19.90
2019-05-20T10:44:31.053Z,19.80
2019-05-20T10:46:34.299Z,19.90
2019-05-20T10:48:37.575Z,19.90
2019-05-20T10:50:40.838Z,19.90
2019-05-20T10:52:44.083Z,19.90
2019-05-20T10:54:47.361Z,19.90
2019-05-20T10:56:50.635Z,20.00
2019-05-20T10:58:53.906Z,19.90
2019-05-20T11:01:02.455Z,19.90
2019-05-20T11:03:02.220Z,20.00
2019-05-20T11:05:06.325Z,20.00
2019-05-20T11:07:09.647Z,20.00
2019-05-20T11:09:14.435Z,20.00
2019-05-20T11:11:17.914Z,20.10
2019-05-20T11:13:21.227Z,20.10
2019-05-20T11:15:24.535Z,20.10
2019-05-20T11:17:27.787Z,20.20
2019-05-20T11:19:31.051Z,20.20
2019-05-20T11:21:34.342Z,20.30
2019-05-20T11:23:37.672Z,20.30
2019-05-20T11:25:40.959Z,20.40
2019-05-20T11:27:44.275Z,20.40
2019-05-20T11:29:47.594Z,20.50
2019-05-20T11:31:50.844Z,20.50
2019-05-20T11:33:57.537Z,20.50
2019-05-20T11:35:59.142Z,20.50
2019-05-20T11:38:02.516Z,20.50
2019-05-20T11:40:08.053Z,20.60
2019-05-20T11:42:11.582Z,20.60
2019-05-20T11:44:14.830Z,20.60
2019-05-20T11:46:18.164Z,20.70
2019-05-20T11:48:21.409Z,20.70
2019-05-20T11:50:24.658Z,20.70
2019-05-20T11:52:28.088Z,20.80
2019-05-20T11:54:31.692Z,20.70
2019-05-20T11:56:35.531Z,20.80
2019-05-20T11:58:38.796Z,20.80
2019-05-20T12:00:42.065Z,20.80
2019-05-20T12:02:45.397Z,20.80
2019-05-20T12:04:48.654Z,20.90
2019-05-20T12:06:51.948Z,20.90
2019-05-20T12:08:55.194Z,20.90
2019-05-20T12:10:58.469Z,20.90
2019-05-20T12:13:01.705Z,20.90
2019-05-20T12:15:06.636Z,20.90
2019-05-20T12:17:10.721Z,20.90
2019-05-20T12:19:14.050Z,20.90
2019-05-20T12:21:17.370Z,20.90
2019-05-20T12:23:20.620Z,20.90
2019-05-20T12:25:23.894Z,20.90
2019-05-20T12:27:27.239Z,20.90
2019-05-20T12:29:30.481Z,20.90
2019-05-20T12:31:33.780Z,21.00
2019-05-20T12:33:37.016Z,20.90
2019-05-20T12:35:40.274Z,20.90
2019-05-20T12:37:45.656Z,20.90
2019-05-20T12:40:04.284Z,20.90
2019-05-20T12:41:53.565Z,20.90
2019-05-20T12:44:10.911Z,20.90
2019-05-20T12:46:01.790Z,20.90
2019-05-20T12:48:05.085Z,20.90
2019-05-20T12:50:08.321Z,21.00
2019-05-20T12:52:11.644Z,21.00
2019-05-20T12:54:15.020Z,21.00
2019-05-20T12:56:19.698Z,21.10
2019-05-20T12:58:23.329Z,21.10
2019-05-20T13:00:26.578Z,21.10
2019-05-20T13:02:29.847Z,21.10
2019-05-20T13:04:33.186Z,21.20
2019-05-20T13:06:36.438Z,21.20
2019-05-20T13:08:39.722Z,21.20
2019-05-20T13:10:43.029Z,21.20
2019-05-20T13:12:46.349Z,21.20
2019-05-20T13:14:49.662Z,21.20
2019-05-20T13:16:52.956Z,21.30
2019-05-20T13:18:56.594Z,21.30
2019-05-20T13:20:59.974Z,21.20
2019-05-20T13:23:05.768Z,21.20
2019-05-20T13:25:08.697Z,21.20
2019-05-20T13:27:11.982Z,21.10
2019-05-20T13:29:15.323Z,21.10
2019-05-20T13:31:18.619Z,21.10
2019-05-20T13:33:21.883Z,21.10
2019-05-20T13:35:25.238Z,21.10
2019-05-20T13:37:28.490Z,21.10
2019-05-20T13:39:31.765Z,21.10
2019-05-20T13:41:35.003Z,21.10
2019-05-20T13:43:38.380Z,21.10
2019-05-20T13:45:41.615Z,21.10
2019-05-20T13:47:45.116Z,21.20
2019-05-20T13:49:48.588Z,21.20
2019-05-20T13:51:52.003Z,21.20
2019-05-20T13:53:55.417Z,21.20
2019-05-20T13:55:58.661Z,21.20
2019-05-20T13:58:02.076Z,21.20
2019-05-20T14:00:07.104Z,21.20
2019-05-20T14:02:10.382Z,21.20
2019-05-20T14:04:13.674Z,21.20
2019-05-20T14:06:17.008Z,21.20
2019-05-20T14:08:20.325Z,21.20
2019-05-20T14:10:23.587Z,21.20
2019-05-20T14:12:26.857Z,21.20
2019-05-20T14:14:30.135Z,21.20
2019-05-20T14:16:33.501Z,21.10
2019-05-20T14:18:36.763Z,21.20
2019-05-20T14:20:40.043Z,21.10
2019-05-20T14:22:43.558Z,21.10
2019-05-20T14:24:46.845Z,21.10
2019-05-20T14:26:50.147Z,21.00
2019-05-20T14:28:53.498Z,21.00
2019-05-20T14:30:56.803Z,21.00
2019-05-20T14:33:00.115Z,20.90
2019-05-20T14:35:05.134Z,20.90
2019-05-20T14:37:08.458Z,20.80
2019-05-20T14:39:11.747Z,20.70
2019-05-20T14:41:21.521Z,20.70
2019-05-20T14:43:20.014Z,20.70
2019-05-20T14:45:23.309Z,20.70
2019-05-20T14:47:26.668Z,20.60
2019-05-20T14:49:30.006Z,20.60
2019-05-20T14:51:33.309Z,20.50
2019-05-20T14:53:36.565Z,20.50
2019-05-20T14:55:42.545Z,20.40
2019-05-20T14:57:44.915Z,20.40
2019-05-20T14:59:48.341Z,20.40
2019-05-20T15:01:51.635Z,20.30
2019-05-20T15:03:54.896Z,20.30
2019-05-20T15:05:58.199Z,20.30
2019-05-20T15:08:01.445Z,20.20
2019-05-20T15:10:09.260Z,20.20
2019-05-20T15:12:12.555Z,20.20
2019-05-20T15:14:15.831Z,20.10
2019-05-20T15:16:19.188Z,20.10
2019-05-20T15:18:22.438Z,20.10
2019-05-20T15:20:25.713Z,20.10
2019-05-20T15:22:29.002Z,20.00
2019-05-20T15:24:32.313Z,20.00
2019-05-20T15:26:35.601Z,20.00
2019-05-20T15:28:38.858Z,20.00
2019-05-20T15:30:42.149Z,20.00
2019-05-20T15:32:45.411Z,19.90
2019-05-20T15:34:48.687Z,19.90
2019-05-20T15:36:52.110Z,19.80
2019-05-20T15:38:55.387Z,19.80
2019-05-20T15:40:58.659Z,19.80
2019-05-20T15:43:01.954Z,19.80
2019-05-20T15:45:08.334Z,19.70
2019-05-20T15:47:11.779Z,19.70
2019-05-20T15:49:15.081Z,19.70
2019-05-20T15:51:18.330Z,19.70
2019-05-20T15:53:21.636Z,19.60
2019-05-20T15:55:24.968Z,19.60
2019-05-20T15:57:28.265Z,19.50
2019-05-20T15:59:44.981Z,19.50
2019-05-20T16:01:36.588Z,19.50
2019-05-20T16:03:39.869Z,19.50
2019-05-20T16:05:43.161Z,19.40
2019-05-20T16:07:46.470Z,19.40
2019-05-20T16:09:49.781Z,19.30
2019-05-20T16:11:53.072Z,19.30
2019-05-20T16:13:56.426Z,19.20
2019-05-20T16:15:59.794Z,19.20
2019-05-20T16:18:03.289Z,19.20
2019-05-20T16:20:07.306Z,19.10
2019-05-20T16:22:10.716Z,19.10
2019-05-20T16:24:14.018Z,19.10
2019-05-20T16:26:17.376Z,19.00
2019-05-20T16:28:20.806Z,19.00
2019-05-20T16:30:24.111Z,19.00
2019-05-20T16:32:27.380Z,19.00
2019-05-20T16:34:30.674Z,18.90
2019-05-20T16:36:33.969Z,18.90
2019-05-20T16:38:37.270Z,18.90
2019-05-20T16:40:40.547Z,18.90
2019-05-20T16:42:43.871Z,18.90
2019-05-20T16:44:47.162Z,18.90
2019-05-20T16:46:50.466Z,18.90
2019-05-20T16:48:53.757Z,18.90
2019-05-20T16:50:57.026Z,18.90
2019-05-20T16:53:00.314Z,18.90
2019-05-20T16:55:04.169Z,18.80
2019-05-20T16:57:07.474Z,18.80
2019-05-20T16:59:10.731Z,18.80
2019-05-20T17:01:13.994Z,18.80
2019-05-20T17:03:17.271Z,18.80
2019-05-20T17:05:20.592Z,18.70
2019-05-20T17:07:23.833Z,18.70
2019-05-20T17:09:27.118Z,18.70
2019-05-20T17:11:30.384Z,18.70
2019-05-20T17:13:33.675Z,18.70
2019-05-20T17:15:36.942Z,18.70
2019-05-20T17:17:40.218Z,18.70
2019-05-20T17:19:43.505Z,18.70
2019-05-20T17:21:46.846Z,18.70
2019-05-20T17:23:50.095Z,18.60
2019-05-20T17:25:53.366Z,18.70
2019-05-20T17:27:56.636Z,18.60
2019-05-20T17:29:59.997Z,18.60
2019-05-20T17:32:03.332Z,18.60
2019-05-20T17:34:06.687Z,18.60
2019-05-20T17:36:10.051Z,18.60
2019-05-20T17:38:13.309Z,18.60
2019-05-20T17:40:16.758Z,18.50
2019-05-20T17:42:20.049Z,18.60
2019-05-20T17:44:23.379Z,18.50
2019-05-20T17:46:26.674Z,18.50
2019-05-20T17:48:29.945Z,18.50
2019-05-20T17:50:33.276Z,18.50
2019-05-20T17:52:36.633Z,18.40
2019-05-20T17:54:39.881Z,18.50
2019-05-20T17:56:43.167Z,18.50
2019-05-20T17:58:46.431Z,18.40
2019-05-20T18:00:49.743Z,18.40
2019-05-20T18:02:53.098Z,18.40
2019-05-20T18:04:56.459Z,18.40
2019-05-20T18:06:59.853Z,18.40
2019-05-20T18:09:04.193Z,18.40
2019-05-20T18:11:07.493Z,18.30
2019-05-20T18:13:10.880Z,18.30
2019-05-20T18:15:14.326Z,18.30
2019-05-20T18:17:17.612Z,18.30
2019-05-20T18:19:20.956Z,18.30
2019-05-20T18:21:24.234Z,18.30
2019-05-20T18:23:27.507Z,18.30
2019-05-20T18:25:30.825Z,18.20
2019-05-20T18:27:34.075Z,18.20
2019-05-20T18:29:37.347Z,18.20
2019-05-20T18:31:40.755Z,18.10
2019-05-20T18:33:44.134Z,18.10
2019-05-20T18:35:47.457Z,18.10
2019-05-20T18:37:50.863Z,18.10
2019-05-20T18:39:54.252Z,18.10
2019-05-20T18:41:57.532Z,18.00
2019-05-20T18:44:00.919Z,18.00
2019-05-20T18:46:04.254Z,18.00
2019-05-20T18:48:07.517Z,18.00
2019-05-20T18:50:10.810Z,18.00
2019-05-20T18:52:14.195Z,18.00
2019-05-20T18:54:17.584Z,17.90
2019-05-20T18:56:20.858Z,17.90
2019-05-20T18:58:24.128Z,18.00
2019-05-20T19:00:27.933Z,17.90
2019-05-20T19:02:31.258Z,17.90
2019-05-20T19:04:34.723Z,17.90
2019-05-20T19:06:38.028Z,17.90
2019-05-20T19:08:41.428Z,17.90
2019-05-20T19:10:44.709Z,17.90
2019-05-20T19:12:48.048Z,17.90
2019-05-20T19:14:51.404Z,17.90
2019-05-20T19:16:54.763Z,17.90
2019-05-20T19:18:58.115Z,17.90
2019-05-20T19:21:01.475Z,17.90
2019-05-20T19:23:04.751Z,17.80
2019-05-20T19:25:08.051Z,17.80
2019-05-20T19:27:11.533Z,17.80
2019-05-20T19:29:14.804Z,17.90
2019-05-20T19:31:18.183Z,17.80
2019-05-20T19:33:21.771Z,17.90
2019-05-20T19:35:25.248Z,17.80
2019-05-20T19:37:28.580Z,17.80
2019-05-20T19:39:31.867Z,17.80
2019-05-20T19:41:35.194Z,17.80
2019-05-20T19:43:38.491Z,17.80
2019-05-20T19:45:41.779Z,17.80
2019-05-20T19:47:45.043Z,17.80
2019-05-20T19:49:48.575Z,17.70
2019-05-20T19:51:51.998Z,17.70
2019-05-20T19:53:55.296Z,17.70
2019-05-20T19:55:58.577Z,17.70
2019-05-20T19:58:01.938Z,17.70
2019-05-20T20:00:07.077Z,17.70
2019-05-20T20:02:17.307Z,17.70
2019-05-20T20:04:15.425Z,17.60
2019-05-20T20:06:18.745Z,17.60
2019-05-20T20:08:22.086Z,17.60
2019-05-20T20:10:25.438Z,17.60
2019-05-20T20:12:28.773Z,17.60
2019-05-20T20:14:32.133Z,17.50
2019-05-20T20:16:35.416Z,17.50
2019-05-20T20:18:38.701Z,17.50
2019-05-20T20:20:42.002Z,17.50
2019-05-20T20:22:45.260Z,17.50
2019-05-20T20:24:48.565Z,17.50
2019-05-20T20:26:51.847Z,17.50
2019-05-20T20:28:55.119Z,17.50
2019-05-20T20:30:58.372Z,17.40
2019-05-20T20:33:01.696Z,17.40
2019-05-20T20:35:06.619Z,17.40
2019-05-20T20:37:09.910Z,17.40
2019-05-20T20:39:13.184Z,17.40
2019-05-20T20:41:16.474Z,17.40
2019-05-20T20:43:19.718Z,17.40
2019-05-20T20:45:23.018Z,17.40
2019-05-20T20:47:40.483Z,17.40
2019-05-20T20:49:31.346Z,17.40
2019-05-20T20:51:34.679Z,17.40
2019-05-20T20:53:37.978Z,17.40
2019-05-20T20:55:41.276Z,17.40
2019-05-20T20:57:44.536Z,17.50
2019-05-20T20:59:50.216Z,17.50
2019-05-20T21:01:56.785Z,17.50
2019-05-20T21:03:57.843Z,17.50
2019-05-20T21:06:01.192Z,17.40
2019-05-20T21:08:04.475Z,17.50
2019-05-20T21:10:07.724Z,17.40
2019-05-20T21:12:10.986Z,17.40
2019-05-20T21:14:14.295Z,17.40
2019-05-20T21:16:17.587Z,17.40
2019-05-20T21:18:20.922Z,17.40
2019-05-20T21:20:24.248Z,17.40
2019-05-20T21:22:27.546Z,17.40
2019-05-20T21:24:30.793Z,17.40
2019-05-20T21:26:34.067Z,17.40
2019-05-20T21:28:37.415Z,17.40
2019-05-20T21:30:40.667Z,17.40
2019-05-20T21:32:43.978Z,17.40
2019-05-20T21:34:47.400Z,17.40
2019-05-20T21:36:50.662Z,17.40
2019-05-20T21:38:53.979Z,17.30
2019-05-20T21:40:57.242Z,17.30
2019-05-20T21:43:00.552Z,17.30
2019-05-20T21:45:05.562Z,17.30
2019-05-20T21:47:11.822Z,17.30
2019-05-20T21:49:15.150Z,17.30
2019-05-20T21:51:18.430Z,17.30
2019-05-20T21:53:21.715Z,17.30
2019-05-20T21:55:24.964Z,17.30
2019-05-20T21:57:28.230Z,17.30
2019-05-20T21:59:31.502Z,17.30
2019-05-20T22:01:34.928Z,17.30
2019-05-20T22:03:38.319Z,17.30
2019-05-20T22:05:41.587Z,17.20
2019-05-20T22:07:46.497Z,17.20
2019-05-20T22:09:54.744Z,17.30
2019-05-20T22:11:58.049Z,17.20
2019-05-20T22:14:01.377Z,17.20
2019-05-20T22:16:04.674Z,17.20
2019-05-20T22:18:08.022Z,17.20
2019-05-20T22:20:11.391Z,17.20
2019-05-20T22:22:19.170Z,17.10
2019-05-20T22:24:22.510Z,17.10
2019-05-20T22:26:25.752Z,17.10
2019-05-20T22:28:29.027Z,17.10
2019-05-20T22:30:32.292Z,17.00
2019-05-20T22:32:35.544Z,17.00
2019-05-20T22:34:52.444Z,17.10
2019-05-20T22:36:43.843Z,17.10
2019-05-20T22:38:47.185Z,17.10
2019-05-20T22:40:50.439Z,17.00
2019-05-20T22:42:53.688Z,17.00
2019-05-20T22:44:56.978Z,17.00
2019-05-20T22:47:00.229Z,17.00
2019-05-20T22:49:03.563Z,17.00
2019-05-20T22:51:06.817Z,17.00
2019-05-20T22:53:10.065Z,17.10
2019-05-20T22:55:13.333Z,17.00
2019-05-20T22:57:16.593Z,17.00
2019-05-20T22:59:19.830Z,17.00
2019-05-20T23:01:23.108Z,17.00
2019-05-20T23:03:26.401Z,17.00
2019-05-20T23:05:29.719Z,17.00
2019-05-20T23:07:32.960Z,17.00
2019-05-20T23:09:36.207Z,17.00
2019-05-20T23:11:39.466Z,17.00
2019-05-20T23:13:42.742Z,17.00
2019-05-20T23:15:46.887Z,17.00
2019-05-20T23:17:50.186Z,17.00
2019-05-20T23:19:53.582Z,17.00
2019-05-20T23:21:57.043Z,17.00
2019-05-20T23:24:00.649Z,17.00
2019-05-20T23:26:04.221Z,17.00
2019-05-20T23:28:07.578Z,16.90
2019-05-20T23:30:10.885Z,16.90
2019-05-20T23:32:14.161Z,16.90
2019-05-20T23:34:17.738Z,16.90
2019-05-20T23:36:20.995Z,16.90
2019-05-20T23:38:24.261Z,16.90
2019-05-20T23:40:27.503Z,16.90
2019-05-20T23:42:30.762Z,16.90
2019-05-20T23:44:34.007Z,16.90
2019-05-20T23:46:37.277Z,16.90
2019-05-20T23:48:40.549Z,16.90
2019-05-20T23:50:43.802Z,16.90
2019-05-20T23:52:47.102Z,16.80
2019-05-20T23:54:50.344Z,16.80
2019-05-20T23:56:53.597Z,16.80
2019-05-20T23:58:56.871Z,16.80
